sensor_id;sensor_type;location;lat;lon;timestamp;pressure;altitude;pressure_sealevel;temperature;humidity
7441;BME280;29616;51.950;8.572;2023-02-19T00:01:45;99971.47;;;10.06;100.00
7441;BME280;29616;51.950;8.572;2023-02-19T00:04:15;99968.59;;;10.08;100.00
7441;BME280;29616;51.950;8.572;2023-02-19T00:06:45;99964.97;;;10.17;100.00
7441;BME280;29616;51.950;8.572;2023-02-19T00:09:16;99963.97;;;10.18;100.00
7441;BME280;29616;51.950;8.572;2023-02-19T00:11:45;99974.47;;;10.13;100.00
7441;BME280;29616;51.950;8.572;2023-02-19T00:14:18;99976.59;;;10.19;100.00
7441;BME280;29616;51.950;8.572;2023-02-19T00:16:47;99978.31;;;10.20;100.00
7441;BME280;29616;51.950;8.572;2023-02-19T00:19:17;99983.25;;;10.16;100.00
7441;BME280;29616;51.950;8.572;2023-02-19T00:21:46;99963.66;;;10.11;100.00
7441;BME280;29616;51.950;8.572;2023-02-19T00:24:14;99964.44;;;10.13;100.00
7441;BME280;29616;51.950;8.572;2023-02-19T00:26:44;99964.53;;;10.12;100.00
7441;BME280;29616;51.950;8.572;2023-02-19T00:29:16;99948.63;;;10.07;100.00
7441;BME280;29616;51.950;8.572;2023-02-19T00:31:45;99947.75;;;10.07;100.00
7441;BME280;29616;51.950;8.572;2023-02-19T00:34:13;99925.41;;;9.94;100.00
7441;BME280;29616;51.950;8.572;2023-02-19T00:36:43;99943.63;;;10.03;100.00
7441;BME280;29616;51.950;8.572;2023-02-19T00:39:14;99935.72;;;10.00;100.00
7441;BME280;29616;51.950;8.572;2023-02-19T00:41:44;99922.69;;;9.94;100.00
7441;BME280;29616;51.950;8.572;2023-02-19T00:44:14;99915.38;;;9.94;100.00
7441;BME280;29616;51.950;8.572;2023-02-19T00:46:45;99924.81;;;10.00;100.00
7441;BME280;29616;51.950;8.572;2023-02-19T00:49:17;99926.47;;;10.10;100.00
7441;BME280;29616;51.950;8.572;2023-02-19T00:51:46;99930.78;;;10.13;100.00
7441;BME280;29616;51.950;8.572;2023-02-19T00:54:15;99915.69;;;10.09;100.00
7441;BME280;29616;51.950;8.572;2023-02-19T00:56:45;99927.06;;;10.14;100.00
7441;BME280;29616;51.950;8.572;2023-02-19T00:59:15;99931.50;;;10.15;100.00
7441;BME280;29616;51.950;8.572;2023-02-19T01:01:44;99917.16;;;10.03;100.00
7441;BME280;29616;51.950;8.572;2023-02-19T01:04:13;99926.72;;;10.17;100.00
7441;BME280;29616;51.950;8.572;2023-02-19T01:06:42;99916.41;;;10.11;100.00
7441;BME280;29616;51.950;8.572;2023-02-19T01:09:10;99926.13;;;10.23;100.00
7441;BME280;29616;51.950;8.572;2023-02-19T01:11:40;99927.53;;;10.27;100.00
7441;BME280;29616;51.950;8.572;2023-02-19T01:14:09;99919.56;;;10.33;100.00
7441;BME280;29616;51.950;8.572;2023-02-19T01:16:39;99927.06;;;10.31;100.00
7441;BME280;29616;51.950;8.572;2023-02-19T01:19:07;99929.16;;;10.20;100.00
7441;BME280;29616;51.950;8.572;2023-02-19T01:21:36;99905.22;;;10.14;100.00
7441;BME280;29616;51.950;8.572;2023-02-19T01:24:04;99906.78;;;10.16;100.00
7441;BME280;29616;51.950;8.572;2023-02-19T01:26:33;99914.50;;;10.39;100.00
7441;BME280;29616;51.950;8.572;2023-02-19T01:29:02;99922.53;;;10.40;100.00
7441;BME280;29616;51.950;8.572;2023-02-19T01:31:31;99930.81;;;10.48;100.00
7441;BME280;29616;51.950;8.572;2023-02-19T01:34:03;99919.44;;;10.35;100.00
7441;BME280;29616;51.950;8.572;2023-02-19T01:36:33;99904.25;;;10.23;100.00
7441;BME280;29616;51.950;8.572;2023-02-19T01:39:04;99921.69;;;10.40;100.00
7441;BME280;29616;51.950;8.572;2023-02-19T01:41:35;99920.28;;;10.53;100.00
7441;BME280;29616;51.950;8.572;2023-02-19T01:44:56;99893.66;;;10.38;100.00
7441;BME280;29616;51.950;8.572;2023-02-19T01:46:55;99908.63;;;10.33;100.00
7441;BME280;29616;51.950;8.572;2023-02-19T01:49:29;99918.16;;;10.47;100.00
7441;BME280;29616;51.950;8.572;2023-02-19T01:52:00;99907.63;;;10.52;100.00
7441;BME280;29616;51.950;8.572;2023-02-19T01:54:33;99919.91;;;10.48;100.00
7441;BME280;29616;51.950;8.572;2023-02-19T01:57:06;99925.34;;;10.48;100.00
7441;BME280;29616;51.950;8.572;2023-02-19T01:59:34;99928.31;;;10.55;100.00
7441;BME280;29616;51.950;8.572;2023-02-19T02:02:04;99921.84;;;10.56;100.00
7441;BME280;29616;51.950;8.572;2023-02-19T02:04:34;99926.06;;;10.50;100.00
7441;BME280;29616;51.950;8.572;2023-02-19T02:07:04;99908.47;;;10.53;100.00
7441;BME280;29616;51.950;8.572;2023-02-19T02:09:54;99852.69;;;10.20;100.00
7441;BME280;29616;51.950;8.572;2023-02-19T02:12:40;99927.91;;;10.67;100.00
7441;BME280;29616;51.950;8.572;2023-02-19T02:15:08;99911.91;;;10.55;100.00
7441;BME280;29616;51.950;8.572;2023-02-19T02:17:46;99927.50;;;10.62;100.00
7441;BME280;29616;51.950;8.572;2023-02-19T02:20:33;99922.84;;;10.55;100.00
7441;BME280;29616;51.950;8.572;2023-02-19T02:23:09;99904.72;;;10.36;100.00
7441;BME280;29616;51.950;8.572;2023-02-19T02:26:03;99929.34;;;10.54;100.00
7441;BME280;29616;51.950;8.572;2023-02-19T02:28:47;99923.38;;;10.58;100.00
7441;BME280;29616;51.950;8.572;2023-02-19T02:31:25;99925.25;;;10.58;100.00
7441;BME280;29616;51.950;8.572;2023-02-19T02:34:00;99897.09;;;10.40;100.00
7441;BME280;29616;51.950;8.572;2023-02-19T02:36:34;99927.44;;;10.54;100.00
7441;BME280;29616;51.950;8.572;2023-02-19T02:39:08;99921.53;;;10.59;100.00
7441;BME280;29616;51.950;8.572;2023-02-19T02:41:42;99909.59;;;10.42;100.00
7441;BME280;29616;51.950;8.572;2023-02-19T02:44:12;99919.50;;;10.43;100.00
7441;BME280;29616;51.950;8.572;2023-02-19T02:46:44;99922.06;;;10.45;100.00
7441;BME280;29616;51.950;8.572;2023-02-19T02:49:17;99900.81;;;10.39;100.00
7441;BME280;29616;51.950;8.572;2023-02-19T02:51:50;99915.91;;;10.43;100.00
7441;BME280;29616;51.950;8.572;2023-02-19T02:54:26;99921.50;;;10.41;100.00
7441;BME280;29616;51.950;8.572;2023-02-19T02:57:13;99922.94;;;10.45;100.00
7441;BME280;29616;51.950;8.572;2023-02-19T02:59:48;99929.63;;;10.33;100.00
7441;BME280;29616;51.950;8.572;2023-02-19T03:02:23;99925.97;;;10.42;100.00
7441;BME280;29616;51.950;8.572;2023-02-19T03:04:59;99916.13;;;10.49;100.00
7441;BME280;29616;51.950;8.572;2023-02-19T03:07:55;99920.03;;;10.47;100.00
7441;BME280;29616;51.950;8.572;2023-02-19T03:10:31;99920.72;;;10.49;100.00
7441;BME280;29616;51.950;8.572;2023-02-19T03:13:03;99921.19;;;10.44;100.00
7441;BME280;29616;51.950;8.572;2023-02-19T03:16:03;99910.13;;;10.46;100.00
7441;BME280;29616;51.950;8.572;2023-02-19T03:18:53;99886.31;;;10.38;100.00
7441;BME280;29616;51.950;8.572;2023-02-19T03:21:44;99916.44;;;10.46;100.00
7441;BME280;29616;51.950;8.572;2023-02-19T03:24:16;99908.72;;;10.42;100.00
7441;BME280;29616;51.950;8.572;2023-02-19T03:27:06;99924.25;;;10.41;100.00
7441;BME280;29616;51.950;8.572;2023-02-19T03:29:42;99910.88;;;10.38;100.00
7441;BME280;29616;51.950;8.572;2023-02-19T03:32:16;99916.22;;;10.40;100.00
7441;BME280;29616;51.950;8.572;2023-02-19T03:34:51;99935.81;;;10.35;100.00
7441;BME280;29616;51.950;8.572;2023-02-19T03:37:27;99928.78;;;10.32;100.00
7441;BME280;29616;51.950;8.572;2023-02-19T03:39:58;99918.78;;;10.41;100.00
7441;BME280;29616;51.950;8.572;2023-02-19T03:42:35;99917.69;;;10.34;100.00
7441;BME280;29616;51.950;8.572;2023-02-19T03:45:28;99919.19;;;10.28;100.00
7441;BME280;29616;51.950;8.572;2023-02-19T03:48:16;99949.22;;;10.46;100.00
7441;BME280;29616;51.950;8.572;2023-02-19T03:50:54;99946.41;;;10.38;100.00
7441;BME280;29616;51.950;8.572;2023-02-19T03:53:30;99935.81;;;10.35;100.00
7441;BME280;29616;51.950;8.572;2023-02-19T03:56:09;99953.91;;;10.36;100.00
7441;BME280;29616;51.950;8.572;2023-02-19T03:58:51;99947.34;;;10.29;100.00
7441;BME280;29616;51.950;8.572;2023-02-19T04:01:29;99948.66;;;10.25;100.00
7441;BME280;29616;51.950;8.572;2023-02-19T04:04:03;99961.72;;;10.31;100.00
7441;BME280;29616;51.950;8.572;2023-02-19T04:06:38;99954.84;;;10.27;100.00
7441;BME280;29616;51.950;8.572;2023-02-19T04:09:10;99961.94;;;10.20;100.00
7441;BME280;29616;51.950;8.572;2023-02-19T04:11:46;99971.53;;;10.24;100.00
7441;BME280;29616;51.950;8.572;2023-02-19T04:14:19;99959.19;;;10.20;100.00
7441;BME280;29616;51.950;8.572;2023-02-19T04:16:54;99968.72;;;10.16;100.00
7441;BME280;29616;51.950;8.572;2023-02-19T04:19:26;99958.50;;;10.18;100.00
7441;BME280;29616;51.950;8.572;2023-02-19T04:21:58;99972.72;;;10.12;100.00
7441;BME280;29616;51.950;8.572;2023-02-19T04:24:33;99971.63;;;10.05;100.00
7441;BME280;29616;51.950;8.572;2023-02-19T04:27:04;99985.19;;;10.24;100.00
7441;BME280;29616;51.950;8.572;2023-02-19T04:29:32;99990.09;;;10.20;100.00
7441;BME280;29616;51.950;8.572;2023-02-19T04:32:04;99988.88;;;10.05;100.00
7441;BME280;29616;51.950;8.572;2023-02-19T04:34:32;99974.94;;;9.99;100.00
7441;BME280;29616;51.950;8.572;2023-02-19T04:37:02;99995.00;;;10.17;100.00
7441;BME280;29616;51.950;8.572;2023-02-19T04:39:31;100007.91;;;10.24;100.00
7441;BME280;29616;51.950;8.572;2023-02-19T04:41:59;99999.56;;;10.26;100.00
7441;BME280;29616;51.950;8.572;2023-02-19T04:44:27;99997.72;;;10.17;100.00
7441;BME280;29616;51.950;8.572;2023-02-19T04:46:55;100013.50;;;10.23;100.00
7441;BME280;29616;51.950;8.572;2023-02-19T04:49:23;100005.22;;;10.15;100.00
7441;BME280;29616;51.950;8.572;2023-02-19T04:51:51;100015.25;;;10.24;100.00
7441;BME280;29616;51.950;8.572;2023-02-19T04:54:21;100027.22;;;10.13;100.00
7441;BME280;29616;51.950;8.572;2023-02-19T04:56:50;100041.44;;;10.17;100.00
7441;BME280;29616;51.950;8.572;2023-02-19T04:59:18;100029.38;;;10.10;100.00
7441;BME280;29616;51.950;8.572;2023-02-19T05:01:46;100046.69;;;10.28;100.00
7441;BME280;29616;51.950;8.572;2023-02-19T05:04:14;100047.56;;;10.28;100.00
7441;BME280;29616;51.950;8.572;2023-02-19T05:06:42;100040.28;;;10.10;100.00
7441;BME280;29616;51.950;8.572;2023-02-19T05:09:10;100045.47;;;10.13;100.00
7441;BME280;29616;51.950;8.572;2023-02-19T05:11:39;100039.72;;;10.16;100.00
7441;BME280;29616;51.950;8.572;2023-02-19T05:14:08;100053.53;;;10.05;100.00
7441;BME280;29616;51.950;8.572;2023-02-19T05:16:36;100058.13;;;10.14;100.00
7441;BME280;29616;51.950;8.572;2023-02-19T05:19:04;100056.09;;;10.06;100.00
7441;BME280;29616;51.950;8.572;2023-02-19T05:21:32;100056.28;;;10.05;100.00
7441;BME280;29616;51.950;8.572;2023-02-19T05:24:00;100058.69;;;10.17;100.00
7441;BME280;29616;51.950;8.572;2023-02-19T05:26:28;100057.56;;;10.01;100.00
7441;BME280;29616;51.950;8.572;2023-02-19T05:28:58;100058.84;;;10.16;100.00
7441;BME280;29616;51.950;8.572;2023-02-19T05:31:27;100069.22;;;10.03;100.00
7441;BME280;29616;51.950;8.572;2023-02-19T05:33:56;100065.16;;;10.16;100.00
7441;BME280;29616;51.950;8.572;2023-02-19T05:36:24;100064.59;;;10.13;100.00
7441;BME280;29616;51.950;8.572;2023-02-19T05:38:53;100049.25;;;10.02;100.00
7441;BME280;29616;51.950;8.572;2023-02-19T05:41:24;100078.81;;;10.07;100.00
7441;BME280;29616;51.950;8.572;2023-02-19T05:43:53;100081.84;;;10.04;100.00
7441;BME280;29616;51.950;8.572;2023-02-19T05:46:24;100069.69;;;9.89;100.00
7441;BME280;29616;51.950;8.572;2023-02-19T05:48:53;100102.16;;;9.92;100.00
7441;BME280;29616;51.950;8.572;2023-02-19T05:51:23;100089.66;;;9.89;100.00
7441;BME280;29616;51.950;8.572;2023-02-19T05:53:52;100099.88;;;9.87;100.00
7441;BME280;29616;51.950;8.572;2023-02-19T05:56:29;100105.34;;;9.87;100.00
7441;BME280;29616;51.950;8.572;2023-02-19T05:58:58;100097.28;;;9.86;100.00
7441;BME280;29616;51.950;8.572;2023-02-19T06:01:28;100106.22;;;9.78;100.00
7441;BME280;29616;51.950;8.572;2023-02-19T06:03:57;100112.66;;;9.87;100.00
7441;BME280;29616;51.950;8.572;2023-02-19T06:06:26;100114.66;;;9.85;100.00
7441;BME280;29616;51.950;8.572;2023-02-19T06:08:54;100119.88;;;9.78;100.00
7441;BME280;29616;51.950;8.572;2023-02-19T06:11:23;100110.69;;;9.79;100.00
7441;BME280;29616;51.950;8.572;2023-02-19T06:13:51;100136.50;;;9.85;100.00
7441;BME280;29616;51.950;8.572;2023-02-19T06:16:20;100135.25;;;9.79;100.00
7441;BME280;29616;51.950;8.572;2023-02-19T06:18:50;100146.59;;;9.74;100.00
7441;BME280;29616;51.950;8.572;2023-02-19T06:21:18;100150.47;;;9.72;100.00
7441;BME280;29616;51.950;8.572;2023-02-19T06:23:47;100146.16;;;9.69;100.00
7441;BME280;29616;51.950;8.572;2023-02-19T06:26:17;100133.84;;;9.65;100.00
7441;BME280;29616;51.950;8.572;2023-02-19T06:28:47;100157.53;;;9.65;100.00
7441;BME280;29616;51.950;8.572;2023-02-19T06:31:16;100112.03;;;9.37;100.00
7441;BME280;29616;51.950;8.572;2023-02-19T06:33:45;100160.69;;;9.60;100.00
7441;BME280;29616;51.950;8.572;2023-02-19T06:36:18;100160.50;;;9.71;100.00
7441;BME280;29616;51.950;8.572;2023-02-19T06:38:47;100168.28;;;9.66;100.00
7441;BME280;29616;51.950;8.572;2023-02-19T06:41:16;100166.72;;;9.73;100.00
7441;BME280;29616;51.950;8.572;2023-02-19T06:43:44;100171.44;;;9.71;100.00
7441;BME280;29616;51.950;8.572;2023-02-19T06:46:13;100159.81;;;9.50;100.00
7441;BME280;29616;51.950;8.572;2023-02-19T06:48:43;100168.88;;;9.60;100.00
7441;BME280;29616;51.950;8.572;2023-02-19T06:51:15;100190.13;;;9.66;100.00
7441;BME280;29616;51.950;8.572;2023-02-19T06:53:44;100193.25;;;9.71;100.00
7441;BME280;29616;51.950;8.572;2023-02-19T06:56:23;100198.72;;;9.71;100.00
7441;BME280;29616;51.950;8.572;2023-02-19T06:58:53;100193.31;;;9.52;100.00
7441;BME280;29616;51.950;8.572;2023-02-19T07:01:21;100233.78;;;9.28;100.00
7441;BME280;29616;51.950;8.572;2023-02-19T07:03:50;100223.94;;;8.97;100.00
7441;BME280;29616;51.950;8.572;2023-02-19T07:06:22;100243.06;;;8.67;100.00
7441;BME280;29616;51.950;8.572;2023-02-19T07:08:51;100224.41;;;8.11;100.00
7441;BME280;29616;51.950;8.572;2023-02-19T07:11:19;100265.06;;;8.03;100.00
7441;BME280;29616;51.950;8.572;2023-02-19T07:13:48;100280.72;;;7.90;100.00
7441;BME280;29616;51.950;8.572;2023-02-19T07:16:21;100290.22;;;7.64;100.00
7441;BME280;29616;51.950;8.572;2023-02-19T07:18:50;100296.44;;;7.55;100.00
7441;BME280;29616;51.950;8.572;2023-02-19T07:21:20;100300.69;;;7.48;100.00
7441;BME280;29616;51.950;8.572;2023-02-19T07:23:48;100305.25;;;7.47;100.00
7441;BME280;29616;51.950;8.572;2023-02-19T07:26:18;100289.59;;;7.28;100.00
7441;BME280;29616;51.950;8.572;2023-02-19T07:28:48;100307.53;;;7.20;100.00
7441;BME280;29616;51.950;8.572;2023-02-19T07:31:18;100319.88;;;7.24;100.00
7441;BME280;29616;51.950;8.572;2023-02-19T07:33:47;100330.50;;;7.16;100.00
7441;BME280;29616;51.950;8.572;2023-02-19T07:36:18;100327.69;;;7.17;100.00
7441;BME280;29616;51.950;8.572;2023-02-19T07:38:52;100340.78;;;7.23;100.00
7441;BME280;29616;51.950;8.572;2023-02-19T07:41:22;100346.22;;;7.23;100.00
7441;BME280;29616;51.950;8.572;2023-02-19T07:43:50;100343.13;;;7.17;100.00
7441;BME280;29616;51.950;8.572;2023-02-19T07:46:20;100354.00;;;7.28;100.00
7441;BME280;29616;51.950;8.572;2023-02-19T07:48:48;100360.16;;;7.41;100.00
7441;BME280;29616;51.950;8.572;2023-02-19T07:51:18;100366.94;;;7.47;100.00
7441;BME280;29616;51.950;8.572;2023-02-19T07:53:48;100353.25;;;7.26;100.00
7441;BME280;29616;51.950;8.572;2023-02-19T07:56:18;100357.44;;;7.30;100.00
7441;BME280;29616;51.950;8.572;2023-02-19T07:58:47;100376.47;;;7.41;100.00
7441;BME280;29616;51.950;8.572;2023-02-19T08:01:18;100368.69;;;7.37;100.00
7441;BME280;29616;51.950;8.572;2023-02-19T08:04:10;100386.69;;;7.49;100.00
7441;BME280;29616;51.950;8.572;2023-02-19T08:06:38;100383.22;;;7.58;100.00
7441;BME280;29616;51.950;8.572;2023-02-19T08:09:07;100393.25;;;7.57;100.00
7441;BME280;29616;51.950;8.572;2023-02-19T08:11:36;100392.38;;;7.57;100.00
7441;BME280;29616;51.950;8.572;2023-02-19T08:14:24;100406.59;;;7.49;100.00
7441;BME280;29616;51.950;8.572;2023-02-19T08:16:52;100403.50;;;7.43;100.00
7441;BME280;29616;51.950;8.572;2023-02-19T08:19:21;100412.78;;;7.40;100.00
7441;BME280;29616;51.950;8.572;2023-02-19T08:21:50;100362.78;;;7.20;100.00
7441;BME280;29616;51.950;8.572;2023-02-19T08:24:21;100413.78;;;7.50;100.00
7441;BME280;29616;51.950;8.572;2023-02-19T08:26:49;100421.31;;;7.47;100.00
7441;BME280;29616;51.950;8.572;2023-02-19T08:29:18;100407.09;;;7.32;100.00
7441;BME280;29616;51.950;8.572;2023-02-19T08:31:46;100406.88;;;7.35;100.00
7441;BME280;29616;51.950;8.572;2023-02-19T08:34:14;100421.19;;;7.48;100.00
7441;BME280;29616;51.950;8.572;2023-02-19T08:36:43;100437.16;;;7.42;100.00
7441;BME280;29616;51.950;8.572;2023-02-19T08:39:11;100426.41;;;7.18;100.00
7441;BME280;29616;51.950;8.572;2023-02-19T08:41:40;100450.25;;;7.37;100.00
7441;BME280;29616;51.950;8.572;2023-02-19T08:44:08;100440.13;;;7.27;100.00
7441;BME280;29616;51.950;8.572;2023-02-19T08:46:37;100432.69;;;7.29;100.00
7441;BME280;29616;51.950;8.572;2023-02-19T08:49:06;100449.75;;;7.43;100.00
7441;BME280;29616;51.950;8.572;2023-02-19T08:51:34;100453.72;;;7.61;100.00
7441;BME280;29616;51.950;8.572;2023-02-19T08:54:03;100459.00;;;7.73;100.00
7441;BME280;29616;51.950;8.572;2023-02-19T08:56:31;100468.38;;;7.80;100.00
7441;BME280;29616;51.950;8.572;2023-02-19T08:59:01;100470.22;;;7.80;100.00
7441;BME280;29616;51.950;8.572;2023-02-19T09:01:29;100477.06;;;7.74;100.00
7441;BME280;29616;51.950;8.572;2023-02-19T09:03:58;100488.06;;;7.62;100.00
7441;BME280;29616;51.950;8.572;2023-02-19T09:06:26;100484.75;;;7.58;100.00
7441;BME280;29616;51.950;8.572;2023-02-19T09:08:54;100483.63;;;7.61;100.00
7441;BME280;29616;51.950;8.572;2023-02-19T09:11:22;100494.75;;;7.69;100.00
7441;BME280;29616;51.950;8.572;2023-02-19T09:13:51;100491.41;;;7.76;100.00
7441;BME280;29616;51.950;8.572;2023-02-19T09:16:20;100491.47;;;8.08;100.00
7441;BME280;29616;51.950;8.572;2023-02-19T09:18:49;100493.94;;;8.54;100.00
7441;BME280;29616;51.950;8.572;2023-02-19T09:21:17;100498.13;;;8.79;100.00
7441;BME280;29616;51.950;8.572;2023-02-19T09:23:45;100508.09;;;8.69;100.00
7441;BME280;29616;51.950;8.572;2023-02-19T09:26:13;100525.81;;;8.31;100.00
7441;BME280;29616;51.950;8.572;2023-02-19T09:28:42;100529.59;;;7.86;100.00
7441;BME280;29616;51.950;8.572;2023-02-19T09:31:12;100540.47;;;7.64;100.00
7441;BME280;29616;51.950;8.572;2023-02-19T09:33:43;100517.00;;;7.74;100.00
7441;BME280;29616;51.950;8.572;2023-02-19T09:36:12;100512.16;;;7.88;100.00
7441;BME280;29616;51.950;8.572;2023-02-19T09:38:41;100531.69;;;7.93;100.00
7441;BME280;29616;51.950;8.572;2023-02-19T09:41:17;100536.06;;;7.74;100.00
7441;BME280;29616;51.950;8.572;2023-02-19T09:43:49;100539.50;;;7.65;100.00
7441;BME280;29616;51.950;8.572;2023-02-19T09:46:25;100540.84;;;7.59;100.00
7441;BME280;29616;51.950;8.572;2023-02-19T09:49:02;100568.19;;;7.58;100.00
7441;BME280;29616;51.950;8.572;2023-02-19T09:51:32;100566.94;;;7.51;100.00
7441;BME280;29616;51.950;8.572;2023-02-19T09:54:02;100574.38;;;7.71;100.00
7441;BME280;29616;51.950;8.572;2023-02-19T09:56:33;100568.81;;;7.83;100.00
7441;BME280;29616;51.950;8.572;2023-02-19T09:59:02;100596.13;;;8.15;100.00
7441;BME280;29616;51.950;8.572;2023-02-19T10:01:33;100600.72;;;8.37;100.00
7441;BME280;29616;51.950;8.572;2023-02-19T10:04:08;100605.72;;;8.64;100.00
7441;BME280;29616;51.950;8.572;2023-02-19T10:06:36;100611.84;;;8.45;100.00
7441;BME280;29616;51.950;8.572;2023-02-19T10:09:17;100612.06;;;8.20;100.00
7441;BME280;29616;51.950;8.572;2023-02-19T10:11:47;100619.28;;;8.10;100.00
7441;BME280;29616;51.950;8.572;2023-02-19T10:14:19;100627.31;;;8.33;100.00
7441;BME280;29616;51.950;8.572;2023-02-19T10:16:51;100607.03;;;8.37;100.00
7441;BME280;29616;51.950;8.572;2023-02-19T10:19:21;100629.31;;;8.42;100.00
7441;BME280;29616;51.950;8.572;2023-02-19T10:21:49;100644.84;;;8.63;100.00
7441;BME280;29616;51.950;8.572;2023-02-19T10:24:21;100640.09;;;8.76;100.00
7441;BME280;29616;51.950;8.572;2023-02-19T10:26:51;100647.06;;;9.11;100.00
7441;BME280;29616;51.950;8.572;2023-02-19T10:29:20;100646.09;;;9.54;100.00
7441;BME280;29616;51.950;8.572;2023-02-19T10:32:12;100653.28;;;9.75;100.00
7441;BME280;29616;51.950;8.572;2023-02-19T10:34:42;100648.88;;;9.63;100.00
7441;BME280;29616;51.950;8.572;2023-02-19T10:37:14;100651.22;;;9.47;100.00
7441;BME280;29616;51.950;8.572;2023-02-19T10:39:44;100668.38;;;9.38;100.00
7441;BME280;29616;51.950;8.572;2023-02-19T10:42:19;100672.97;;;9.06;100.00
7441;BME280;29616;51.950;8.572;2023-02-19T10:44:52;100689.47;;;9.04;100.00
7441;BME280;29616;51.950;8.572;2023-02-19T10:47:25;100676.88;;;8.81;100.00
7441;BME280;29616;51.950;8.572;2023-02-19T10:49:58;100698.56;;;8.94;100.00
7441;BME280;29616;51.950;8.572;2023-02-19T10:52:32;100689.50;;;9.25;100.00
7441;BME280;29616;51.950;8.572;2023-02-19T10:55:15;100678.47;;;9.27;100.00
7441;BME280;29616;51.950;8.572;2023-02-19T10:57:44;100682.06;;;9.27;100.00
7441;BME280;29616;51.950;8.572;2023-02-19T11:00:22;100673.88;;;9.27;100.00
7441;BME280;29616;51.950;8.572;2023-02-19T11:03:17;100665.91;;;9.97;100.00
7441;BME280;29616;51.950;8.572;2023-02-19T11:05:56;100681.81;;;10.43;100.00
7441;BME280;29616;51.950;8.572;2023-02-19T11:08:26;100682.91;;;10.31;100.00
7441;BME280;29616;51.950;8.572;2023-02-19T11:10:55;100678.34;;;11.96;100.00
7441;BME280;29616;51.950;8.572;2023-02-19T11:13:28;100683.41;;;12.37;100.00
7441;BME280;29616;51.950;8.572;2023-02-19T11:15:59;100684.56;;;11.88;100.00
7441;BME280;29616;51.950;8.572;2023-02-19T11:18:30;100686.00;;;11.83;100.00
7441;BME280;29616;51.950;8.572;2023-02-19T11:21:04;100692.53;;;12.28;100.00
7441;BME280;29616;51.950;8.572;2023-02-19T11:23:36;100698.59;;;12.59;100.00
7441;BME280;29616;51.950;8.572;2023-02-19T11:26:14;100699.03;;;12.64;100.00
7441;BME280;29616;51.950;8.572;2023-02-19T11:28:44;100695.72;;;12.24;100.00
7441;BME280;29616;51.950;8.572;2023-02-19T11:31:22;100700.00;;;11.80;100.00
7441;BME280;29616;51.950;8.572;2023-02-19T11:33:56;100691.03;;;11.01;100.00
7441;BME280;29616;51.950;8.572;2023-02-19T11:36:32;100706.84;;;10.98;100.00
7441;BME280;29616;51.950;8.572;2023-02-19T11:39:20;100698.88;;;10.75;100.00
7441;BME280;29616;51.950;8.572;2023-02-19T11:42:09;100702.13;;;11.19;100.00
7441;BME280;29616;51.950;8.572;2023-02-19T11:44:47;100686.34;;;11.70;100.00
7441;BME280;29616;51.950;8.572;2023-02-19T11:47:44;100710.56;;;12.31;100.00
7441;BME280;29616;51.950;8.572;2023-02-19T11:50:21;100693.41;;;12.29;100.00
7441;BME280;29616;51.950;8.572;2023-02-19T11:53:02;100706.81;;;12.32;100.00
7441;BME280;29616;51.950;8.572;2023-02-19T11:55:47;100696.44;;;12.26;100.00
7441;BME280;29616;51.950;8.572;2023-02-19T11:58:42;100694.34;;;12.74;100.00
7441;BME280;29616;51.950;8.572;2023-02-19T12:01:23;100679.25;;;13.32;100.00
7441;BME280;29616;51.950;8.572;2023-02-19T12:04:14;100684.59;;;13.16;100.00
7441;BME280;29616;51.950;8.572;2023-02-19T12:07:05;100680.09;;;12.34;100.00
7441;BME280;29616;51.950;8.572;2023-02-19T12:10:02;100665.84;;;11.55;100.00
7441;BME280;29616;51.950;8.572;2023-02-19T12:12:48;100677.19;;;12.35;100.00
7441;BME280;29616;51.950;8.572;2023-02-19T12:21:33;100691.06;;;15.05;100.00
7441;BME280;29616;51.950;8.572;2023-02-19T12:27:33;100695.22;;;13.90;100.00
7441;BME280;29616;51.950;8.572;2023-02-19T12:30:30;100696.53;;;12.70;100.00
7441;BME280;29616;51.950;8.572;2023-02-19T12:33:30;100703.97;;;12.51;100.00
7441;BME280;29616;51.950;8.572;2023-02-19T12:36:10;100701.75;;;12.27;100.00
7441;BME280;29616;51.950;8.572;2023-02-19T12:38:49;100707.28;;;12.18;100.00
7441;BME280;29616;51.950;8.572;2023-02-19T12:41:36;100708.94;;;11.72;100.00
7441;BME280;29616;51.950;8.572;2023-02-19T12:44:14;100728.81;;;11.45;100.00
7441;BME280;29616;51.950;8.572;2023-02-19T12:46:48;100716.72;;;11.86;100.00
7441;BME280;29616;51.950;8.572;2023-02-19T12:49:24;100704.19;;;12.67;100.00
7441;BME280;29616;51.950;8.572;2023-02-19T12:51:57;100720.44;;;13.50;100.00
7441;BME280;29616;51.950;8.572;2023-02-19T12:54:32;100726.09;;;13.66;100.00
7441;BME280;29616;51.950;8.572;2023-02-19T12:57:04;100722.09;;;13.61;100.00
7441;BME280;29616;51.950;8.572;2023-02-19T12:59:39;100732.44;;;13.31;100.00
7441;BME280;29616;51.950;8.572;2023-02-19T13:02:15;100743.09;;;13.34;100.00
7441;BME280;29616;51.950;8.572;2023-02-19T13:04:51;100745.91;;;12.98;100.00
7441;BME280;29616;51.950;8.572;2023-02-19T13:07:27;100739.31;;;12.54;100.00
7441;BME280;29616;51.950;8.572;2023-02-19T13:10:21;100720.69;;;12.21;100.00
7441;BME280;29616;51.950;8.572;2023-02-19T13:12:51;100732.06;;;12.72;100.00
7441;BME280;29616;51.950;8.572;2023-02-19T13:15:32;100738.75;;;12.87;100.00
7441;BME280;29616;51.950;8.572;2023-02-19T13:18:06;100739.91;;;12.85;100.00
7441;BME280;29616;51.950;8.572;2023-02-19T13:20:42;100740.41;;;12.98;100.00
7441;BME280;29616;51.950;8.572;2023-02-19T13:23:17;100746.50;;;12.92;100.00
7441;BME280;29616;51.950;8.572;2023-02-19T13:26:19;100754.59;;;12.93;100.00
7441;BME280;29616;51.950;8.572;2023-02-19T13:29:08;100726.19;;;12.01;100.00
7441;BME280;29616;51.950;8.572;2023-02-19T13:32:09;100727.66;;;12.05;100.00
7441;BME280;29616;51.950;8.572;2023-02-19T13:34:54;100737.00;;;12.12;100.00
7441;BME280;29616;51.950;8.572;2023-02-19T13:37:26;100742.97;;;12.45;100.00
7441;BME280;29616;51.950;8.572;2023-02-19T13:40:03;100744.66;;;12.55;100.00